Flight Track Log - Related Links

Times and Time Zones

All times are in EDT time to prevent confusion due to time zone crossing. See the UCA4838 flight status page for this flight to view local times or setup timezone preferences in your user account.


Time Position Orientation Groundspeed Altitude Reporting Facility
EDT Latitude Longitude Course Direction KTS MPH feet Rate Location/Type
Thu 06:07:12 AM 43.1036 -77.6914 210° Southwest 134 154 1,000  Level Cleveland Center
Thu 06:07:48 AM 43.0811 -77.7094 210° Southwest 139 160 1,700 990 Climbing Cleveland Center
Thu 06:08:49 AM 43.0369 -77.7000 171° South 191 220 2,600 992 Climbing Cleveland Center
Thu 06:09:49 AM 43.0231 -77.6383 107° East 191 220 3,700 1,055 Climbing Cleveland Center
Thu 06:10:20 AM 43.0219 -77.6014 92° East 195 224 4,200 1,187 Climbing Cleveland Center
Thu 06:11:20 AM 43.0036 -77.5311 110° East 195 224 5,500 1,250 Climbing Cleveland Center
Thu 06:12:20 AM 42.9789 -77.4644 117° Southeast 195 224 6,700 1,200 Climbing Cleveland Center
Thu 06:13:20 AM 42.9581 -77.3917 111° Southeast 201 231 7,900 1,050 Climbing Cleveland Center
Thu 06:14:20 AM 42.9356 -77.3303 117° Southeast 206 237 8,800 1,100 Climbing Cleveland Center
Thu 06:15:20 AM 42.9128 -77.2606 114° Southeast 206 237 10,100 1,150 Climbing Cleveland Center
Thu 06:16:20 AM 42.8878 -77.1883 115° Southeast 206 237 11,100 1,050 Climbing Cleveland Center
Thu 06:17:20 AM 42.8647 -77.1158 113° Southeast 206 237 12,200 616 Climbing Cleveland Center
Thu 06:19:25 AM 42.8078 -76.9500 115° Southeast 209 241 13,000 258 Climbing New York Center
Thu 06:20:26 AM 42.7683 -76.8672 123° Southeast 241 277 13,000  Level New York Center
Thu 06:21:24 AM 42.7311 -76.7792 120° Southeast 261 300 13,000  Level New York Center
Thu 06:22:26 AM 42.6917 -76.6908 121° Southeast 267 307 13,000  Level New York Center
Thu 06:23:24 AM 42.6511 -76.6072 123° Southeast 265 305 13,000  Level Boston Center
Thu 06:24:24 AM 42.6125 -76.5228 122° Southeast 270 311 13,000  Level Boston Center
Thu 06:25:24 AM 42.5758 -76.4414 121° Southeast 270 311 13,000  Level Boston Center
Thu 06:26:24 AM 42.5372 -76.3544 121° Southeast 270 311 13,000  Level Boston Center
Thu 06:27:24 AM 42.5006 -76.2706 121° Southeast 270 311 13,000  Level Boston Center
Thu 06:28:24 AM 42.4656 -76.1922 121° Southeast 270 311 13,000  Level Boston Center
Thu 06:29:24 AM 42.4267 -76.1056 121° Southeast 265 305 13,000  Level Boston Center
Thu 06:30:24 AM 42.3875 -76.0244 123° Southeast 270 311 13,000  Level Boston Center
Thu 06:31:24 AM 42.3603 -75.9611 120° Southeast 257 296 13,000  Level Boston Center
Thu 06:32:24 AM 42.3136 -75.8544 121° Southeast 268 308 13,000  Level Boston Center
Thu 06:33:36 AM 42.2706 -75.7622 122° Southeast 262 302 13,000  Level Boston Center
Thu 06:34:36 AM 42.2253 -75.6644 122° Southeast 262 302 13,000  Level Boston Center
Thu 06:35:36 AM 42.1858 -75.5814 123° Southeast 267 307 13,000  Level Boston Center
Thu 06:36:36 AM 42.1486 -75.4981 121° Southeast 267 307 13,000  Level Boston Center
Thu 06:37:36 AM 42.1111 -75.4181 122° Southeast 262 302 13,000  Level Boston Center
Thu 06:38:36 AM 42.0736 -75.3378 122° Southeast 262 302 13,000  Level Boston Center
Thu 06:39:36 AM 42.0383 -75.2522 119° Southeast 262 302 13,000  Level Boston Center
Thu 06:40:36 AM 42.0050 -75.1669 118° Southeast 257 296 13,000  Level Boston Center
Thu 06:41:36 AM 41.9775 -75.0906 116° Southeast 257 296 13,000  Level Boston Center
Thu 06:42:36 AM 41.9422 -74.9942 116° Southeast 252 290 13,000 -50 Level Boston Center
Thu 06:43:36 AM 41.9128 -74.9175 117° Southeast 252 290 12,900 -450 Descending Boston Center
Thu 06:44:36 AM 41.8753 -74.8183 117° Southeast 263 303 12,100 -950 Descending Boston Center
Thu 06:45:36 AM 41.8417 -74.7308 117° Southeast 274 315 11,000 -1,200 Descending Boston Center
Thu 06:46:36 AM 41.7717 -74.6781 151° Southeast 263 303 9,700 -1,200 Descending Boston Center
Thu 06:47:36 AM 41.7053 -74.6619 170° South 263 303 8,600 -1,100 Descending Boston Center
Thu 06:48:36 AM 41.6369 -74.6456 170° South 275 316 7,500 -1,200 Descending Boston Center
Thu 06:49:36 AM 41.5539 -74.6233 169° South 275 316 6,200 -750 Descending Boston Center
Thu 06:50:36 AM 41.4750 -74.6067 171° South 275 316 6,000 -74 Descending Boston Center
Thu 06:52:19 AM 41.3500 -74.6167 183° South 252 290 6,000  Level New York TRACON
Thu 06:53:14 AM 41.3000 -74.6167 180° South 250 288 6,000  Level New York TRACON
Thu 06:54:07 AM 41.2500 -74.5500 135° Southeast 253 291 6,000  Level New York TRACON
Thu 06:55:07 AM 41.2000 -74.4833 135° Southeast 255 293 6,000 -150 Level New York TRACON
Thu 06:56:07 AM 41.1500 -74.4167 135° Southeast 257 296 5,700 -368 Descending New York TRACON
Thu 06:57:01 AM 41.1000 -74.3667 143° Southeast 267 307 5,300 -368 Descending New York TRACON
Thu 06:58:01 AM 41.0500 -74.3000 135° Southeast 256 295 5,000 -526 Descending New York TRACON
Thu 06:58:55 AM 41.0000 -74.2500 143° Southeast 238 274 4,300 -526 Descending New York TRACON
Thu 06:59:55 AM 40.9500 -74.1833 135° Southeast 233 268 4,000 -300 Descending New York TRACON
Thu 07:00:55 AM 40.9000 -74.1333 143° Southeast 235 270 3,700 -500 Descending New York TRACON
Thu 07:01:55 AM 40.8500 -74.0833 143° Southeast 214 246 3,000 -678 Descending New York TRACON
Thu 07:02:50 AM 40.8167 -74.0833 180° South 196 226 2,400 -835 Descending New York TRACON
Thu 07:03:50 AM 40.7667 -74.1167 207° Southwest 178 205 1,400 -850 Descending New York TRACON
Thu 07:04:50 AM 40.7333 -74.1500 217° Southwest 138 159 700 -700 Descending New York TRACON
Thu 07:06:00 AM 40.6925 -74.1687 169° South  Level Estimated
Thu 07:13:00 AM 40.6925 -74.1687 169° South  Level Estimated
Thu 07:14:00 AM 40.6925 -74.1687 169° South  Level Estimated

Login

Don't have an account? Register now (free) for customized features, flight alerts, and more!